Terminal Aerodrome Forecast
Issued by NWS

Current Version | Previous Version | Text Only | Print | Product List | Glossary Off
Versions: 1 2 3 4 5 6 7 8 9 10 11 12 13 14 15 16

471
FTUS41 KPBZ 161125
TAFMGW
TAF
KMGW 161125Z 1612/1712 23010G20KT P6SM SCT015 BKN025
      TEMPO 1612/1614 BKN035
     FM170000 28008KT P6SM BKN025
     FM170500 29003KT P6SM SCT040=

USA.gov is the U.S. government's official web portal to all federal, state and local government web resources and services.